sensor_id;sensor_type;location;lat;lon;timestamp;pressure;altitude;pressure_sealevel;temperature;humidity
64158;BME280;50449;51.528;5.076;2023-03-16T00:00:41;101633.53;;;11.13;54.71
64158;BME280;50449;51.528;5.076;2023-03-16T00:03:07;101643.53;;;11.12;54.75
64158;BME280;50449;51.528;5.076;2023-03-16T00:05:32;101632.72;;;11.12;54.80
64158;BME280;50449;51.528;5.076;2023-03-16T00:07:58;101630.22;;;11.11;54.63
64158;BME280;50449;51.528;5.076;2023-03-16T00:10:23;101640.22;;;11.10;54.71
64158;BME280;50449;51.528;5.076;2023-03-16T00:12:52;101635.88;;;11.09;54.82
64158;BME280;50449;51.528;5.076;2023-03-16T00:15:18;101633.16;;;11.09;54.65
64158;BME280;50449;51.528;5.076;2023-03-16T00:17:43;101619.84;;;11.08;54.67
64158;BME280;50449;51.528;5.076;2023-03-16T00:20:15;101618.22;;;11.07;54.98
64158;BME280;50449;51.528;5.076;2023-03-16T00:22:41;101618.63;;;11.03;54.80
64158;BME280;50449;51.528;5.076;2023-03-16T00:25:08;101615.34;;;11.01;54.72
64158;BME280;50449;51.528;5.076;2023-03-16T00:27:33;101616.38;;;11.00;54.65
64158;BME280;50449;51.528;5.076;2023-03-16T00:29:59;101619.91;;;11.01;54.72
64158;BME280;50449;51.528;5.076;2023-03-16T00:32:35;101612.88;;;11.00;54.68
64158;BME280;50449;51.528;5.076;2023-03-16T00:35:02;101619.91;;;11.01;54.71
64158;BME280;50449;51.528;5.076;2023-03-16T00:37:28;101619.34;;;10.99;54.88
64158;BME280;50449;51.528;5.076;2023-03-16T00:39:54;101607.47;;;11.00;54.41
64158;BME280;50449;51.528;5.076;2023-03-16T00:42:20;101610.38;;;10.98;54.90
64158;BME280;50449;51.528;5.076;2023-03-16T00:44:55;101612.88;;;11.00;54.71
64158;BME280;50449;51.528;5.076;2023-03-16T00:47:22;101609.56;;;10.98;54.72
64158;BME280;50449;51.528;5.076;2023-03-16T00:49:48;101606.03;;;10.97;54.76
64158;BME280;50449;51.528;5.076;2023-03-16T00:52:13;101607.91;;;10.97;54.59
64158;BME280;50449;51.528;5.076;2023-03-16T00:54:40;101599.81;;;10.97;54.77
64158;BME280;50449;51.528;5.076;2023-03-16T00:57:07;101592.72;;;10.96;54.51
64158;BME280;50449;51.528;5.076;2023-03-16T00:59:33;101592.72;;;10.96;54.58
64158;BME280;50449;51.528;5.076;2023-03-16T01:02:03;101595.44;;;10.96;54.55
64158;BME280;50449;51.528;5.076;2023-03-16T01:04:28;101589.22;;;10.95;54.64
64158;BME280;50449;51.528;5.076;2023-03-16T01:06:54;101586.50;;;10.95;54.70
64158;BME280;50449;51.528;5.076;2023-03-16T01:09:19;101579.47;;;10.94;54.66
64158;BME280;50449;51.528;5.076;2023-03-16T01:11:45;101574.06;;;10.94;54.58
64158;BME280;50449;51.528;5.076;2023-03-16T01:14:13;101565.34;;;10.92;54.63
64158;BME280;50449;51.528;5.076;2023-03-16T01:16:38;101560.75;;;10.93;54.88
64158;BME280;50449;51.528;5.076;2023-03-16T01:19:04;101556.41;;;10.92;54.59
64158;BME280;50449;51.528;5.076;2023-03-16T01:21:29;101543.72;;;10.92;54.64
64158;BME280;50449;51.528;5.076;2023-03-16T01:23:57;101542.06;;;10.91;54.63
64158;BME280;50449;51.528;5.076;2023-03-16T01:26:23;101539.38;;;10.91;54.71
64158;BME280;50449;51.528;5.076;2023-03-16T01:28:49;101537.69;;;10.90;54.67
64158;BME280;50449;51.528;5.076;2023-03-16T01:31:14;101536.88;;;10.90;54.62
64158;BME280;50449;51.528;5.076;2023-03-16T01:33:41;101531.47;;;10.90;54.75
64158;BME280;50449;51.528;5.076;2023-03-16T01:36:09;101529.84;;;10.89;54.59
64158;BME280;50449;51.528;5.076;2023-03-16T01:38:35;101534.38;;;10.88;54.69
64158;BME280;50449;51.528;5.076;2023-03-16T01:41:00;101532.75;;;10.87;54.76
64158;BME280;50449;51.528;5.076;2023-03-16T01:43:28;101532.75;;;10.87;54.77
64158;BME280;50449;51.528;5.076;2023-03-16T01:46:12;101528.41;;;10.86;54.41
64158;BME280;50449;51.528;5.076;2023-03-16T01:48:46;101536.50;;;10.86;54.67
64158;BME280;50449;51.528;5.076;2023-03-16T01:53:47;101532.13;;;10.85;54.78
64158;BME280;50449;51.528;5.076;2023-03-16T01:56:17;101530.25;;;10.86;54.40
64158;BME280;50449;51.528;5.076;2023-03-16T01:58:45;101540.25;;;10.85;54.81
64158;BME280;50449;51.528;5.076;2023-03-16T02:01:12;101533.22;;;10.84;54.63
64158;BME280;50449;51.528;5.076;2023-03-16T02:03:39;101534.03;;;10.85;54.71
64158;BME280;50449;51.528;5.076;2023-03-16T02:06:11;101532.38;;;10.83;54.62
64158;BME280;50449;51.528;5.076;2023-03-16T02:08:41;101528.00;;;10.82;54.42
64158;BME280;50449;51.528;5.076;2023-03-16T02:11:08;101520.97;;;10.81;54.77
64158;BME280;50449;51.528;5.076;2023-03-16T02:13:34;101524.50;;;10.82;54.72
64158;BME280;50449;51.528;5.076;2023-03-16T02:16:02;101513.88;;;10.80;54.47
64158;BME280;50449;51.528;5.076;2023-03-16T02:18:30;101512.03;;;10.81;54.67
64158;BME280;50449;51.528;5.076;2023-03-16T02:23:30;101507.47;;;10.81;54.76
64158;BME280;50449;51.528;5.076;2023-03-16T02:26:07;101500.38;;;10.80;54.80
64158;BME280;50449;51.528;5.076;2023-03-16T02:28:51;101501.44;;;10.79;54.74
64158;BME280;50449;51.528;5.076;2023-03-16T02:31:18;101496.03;;;10.79;54.81
64158;BME280;50449;51.528;5.076;2023-03-16T02:33:45;101499.56;;;10.80;54.79
64158;BME280;50449;51.528;5.076;2023-03-16T02:36:13;101496.84;;;10.80;54.81
64158;BME280;50449;51.528;5.076;2023-03-16T02:38:39;101493.34;;;10.79;54.66
64158;BME280;50449;51.528;5.076;2023-03-16T02:41:14;101482.53;;;10.79;54.43
64158;BME280;50449;51.528;5.076;2023-03-16T02:43:43;101486.06;;;10.80;54.89
64158;BME280;50449;51.528;5.076;2023-03-16T02:46:12;101489.81;;;10.79;54.77
64158;BME280;50449;51.528;5.076;2023-03-16T02:48:47;101482.53;;;10.79;54.73
64158;BME280;50449;51.528;5.076;2023-03-16T02:51:13;101478.41;;;10.77;54.65
64158;BME280;50449;51.528;5.076;2023-03-16T02:53:39;101477.56;;;10.76;54.96
64158;BME280;50449;51.528;5.076;2023-03-16T02:56:05;101480.28;;;10.76;54.78
64158;BME280;50449;51.528;5.076;2023-03-16T02:58:30;101474.88;;;10.76;54.71
64158;BME280;50449;51.528;5.076;2023-03-16T03:00:56;101486.50;;;10.77;54.71
64158;BME280;50449;51.528;5.076;2023-03-16T03:03:21;101482.97;;;10.76;54.85
64158;BME280;50449;51.528;5.076;2023-03-16T03:05:47;101476.72;;;10.76;54.74
64158;BME280;50449;51.528;5.076;2023-03-16T03:08:12;101479.44;;;10.76;54.89
64158;BME280;50449;51.528;5.076;2023-03-16T03:10:39;101474.03;;;10.76;54.84
64158;BME280;50449;51.528;5.076;2023-03-16T03:13:04;101475.91;;;10.75;54.93
64158;BME280;50449;51.528;5.076;2023-03-16T03:15:32;101473.22;;;10.75;54.83
64158;BME280;50449;51.528;5.076;2023-03-16T03:17:57;101475.91;;;10.75;54.82
64158;BME280;50449;51.528;5.076;2023-03-16T03:20:23;101472.38;;;10.75;54.75
64158;BME280;50449;51.528;5.076;2023-03-16T03:22:49;101471.31;;;10.76;54.85
64158;BME280;50449;51.528;5.076;2023-03-16T03:25:17;101476.16;;;10.74;54.76
64158;BME280;50449;51.528;5.076;2023-03-16T03:27:43;101473.44;;;10.74;54.87
64158;BME280;50449;51.528;5.076;2023-03-16T03:30:12;101469.91;;;10.73;54.94
64158;BME280;50449;51.528;5.076;2023-03-16T03:32:39;101471.78;;;10.73;54.95
64158;BME280;50449;51.528;5.076;2023-03-16T03:35:05;101479.06;;;10.72;54.92
64158;BME280;50449;51.528;5.076;2023-03-16T03:37:31;101468.25;;;10.72;54.89
64158;BME280;50449;51.528;5.076;2023-03-16T03:39:56;101470.97;;;10.72;54.74
64158;BME280;50449;51.528;5.076;2023-03-16T03:42:22;101463.06;;;10.71;54.86
64158;BME280;50449;51.528;5.076;2023-03-16T03:44:50;101459.56;;;10.70;54.89
64158;BME280;50449;51.528;5.076;2023-03-16T03:47:17;101460.38;;;10.71;54.92
64158;BME280;50449;51.528;5.076;2023-03-16T03:49:42;101453.31;;;10.70;54.89
64158;BME280;50449;51.528;5.076;2023-03-16T03:52:08;101442.53;;;10.70;54.96
64158;BME280;50449;51.528;5.076;2023-03-16T03:54:33;101452.25;;;10.71;54.91
64158;BME280;50449;51.528;5.076;2023-03-16T03:56:59;101439.81;;;10.70;54.79
64158;BME280;50449;51.528;5.076;2023-03-16T03:59:24;101435.22;;;10.70;54.83
64158;BME280;50449;51.528;5.076;2023-03-16T04:01:49;101433.59;;;10.69;54.86
64158;BME280;50449;51.528;5.076;2023-03-16T04:04:18;101430.91;;;10.69;54.88
64158;BME280;50449;51.528;5.076;2023-03-16T04:06:44;101431.09;;;10.68;54.87
64158;BME280;50449;51.528;5.076;2023-03-16T04:09:09;101429.00;;;10.70;54.81
64158;BME280;50449;51.528;5.076;2023-03-16T04:11:35;101430.06;;;10.69;54.94
64158;BME280;50449;51.528;5.076;2023-03-16T04:14:04;101429.22;;;10.68;54.72
64158;BME280;50449;51.528;5.076;2023-03-16T04:16:30;101430.28;;;10.67;54.71
64158;BME280;50449;51.528;5.076;2023-03-16T04:18:56;101432.16;;;10.67;54.94
64158;BME280;50449;51.528;5.076;2023-03-16T04:21:22;101433.81;;;10.68;54.91
64158;BME280;50449;51.528;5.076;2023-03-16T04:23:49;101428.41;;;10.68;54.93
64158;BME280;50449;51.528;5.076;2023-03-16T04:26:19;101429.47;;;10.67;54.93
64158;BME280;50449;51.528;5.076;2023-03-16T04:28:44;101426.75;;;10.67;54.87
64158;BME280;50449;51.528;5.076;2023-03-16T04:31:10;101430.28;;;10.67;54.97
64158;BME280;50449;51.528;5.076;2023-03-16T04:33:37;101418.66;;;10.67;54.85
64158;BME280;50449;51.528;5.076;2023-03-16T04:36:04;101425.94;;;10.66;55.03
64158;BME280;50449;51.528;5.076;2023-03-16T04:38:31;101415.97;;;10.67;55.17
64158;BME280;50449;51.528;5.076;2023-03-16T04:41:02;101413.25;;;10.67;54.93
64158;BME280;50449;51.528;5.076;2023-03-16T04:43:28;101416.19;;;10.65;55.02
64158;BME280;50449;51.528;5.076;2023-03-16T04:45:53;101419.69;;;10.66;55.09
64158;BME280;50449;51.528;5.076;2023-03-16T04:48:19;101414.28;;;10.66;55.00
64158;BME280;50449;51.528;5.076;2023-03-16T04:50:46;101409.94;;;10.65;55.12
64158;BME280;50449;51.528;5.076;2023-03-16T04:53:12;101411.84;;;10.64;55.26
64158;BME280;50449;51.528;5.076;2023-03-16T04:55:37;101409.94;;;10.65;55.02
64158;BME280;50449;51.528;5.076;2023-03-16T04:58:03;101411.00;;;10.64;55.00
64158;BME280;50449;51.528;5.076;2023-03-16T05:00:28;101411.00;;;10.64;55.05
64158;BME280;50449;51.528;5.076;2023-03-16T05:02:53;101413.72;;;10.64;55.02
64158;BME280;50449;51.528;5.076;2023-03-16T05:05:19;101404.75;;;10.63;54.98
64158;BME280;50449;51.528;5.076;2023-03-16T05:07:46;101403.94;;;10.63;55.05
64158;BME280;50449;51.528;5.076;2023-03-16T05:10:13;101400.44;;;10.62;55.04
64158;BME280;50449;51.528;5.076;2023-03-16T05:12:39;101405.81;;;10.62;54.58
64158;BME280;50449;51.528;5.076;2023-03-16T05:15:05;101406.88;;;10.61;55.16
64158;BME280;50449;51.528;5.076;2023-03-16T05:17:31;101396.91;;;10.61;55.27
64158;BME280;50449;51.528;5.076;2023-03-16T05:19:57;101393.38;;;10.61;55.00
64158;BME280;50449;51.528;5.076;2023-03-16T05:22:22;101384.44;;;10.60;55.08
64158;BME280;50449;51.528;5.076;2023-03-16T05:24:48;101395.03;;;10.62;55.22
64158;BME280;50449;51.528;5.076;2023-03-16T05:27:14;101384.22;;;10.62;55.07
64158;BME280;50449;51.528;5.076;2023-03-16T05:29:39;101383.41;;;10.61;55.09
64158;BME280;50449;51.528;5.076;2023-03-16T05:32:05;101385.28;;;10.61;55.07
64158;BME280;50449;51.528;5.076;2023-03-16T05:34:31;101378.22;;;10.60;55.23
64158;BME280;50449;51.528;5.076;2023-03-16T05:36:56;101371.78;;;10.61;54.98
64158;BME280;50449;51.528;5.076;2023-03-16T05:39:22;101368.22;;;10.60;55.06
64158;BME280;50449;51.528;5.076;2023-03-16T05:41:48;101372.81;;;10.60;55.16
64158;BME280;50449;51.528;5.076;2023-03-16T05:44:13;101364.69;;;10.60;55.06
64158;BME280;50449;51.528;5.076;2023-03-16T05:46:39;101368.22;;;10.60;55.07
64158;BME280;50449;51.528;5.076;2023-03-16T05:49:04;101362.00;;;10.60;55.10
64158;BME280;50449;51.528;5.076;2023-03-16T05:51:29;101362.00;;;10.60;55.22
64158;BME280;50449;51.528;5.076;2023-03-16T05:53:55;101360.13;;;10.60;55.16
64158;BME280;50449;51.528;5.076;2023-03-16T05:56:25;101367.41;;;10.60;55.15
64158;BME280;50449;51.528;5.076;2023-03-16T05:58:52;101370.34;;;10.58;55.16
64158;BME280;50449;51.528;5.076;2023-03-16T06:01:18;101367.41;;;10.60;55.15
64158;BME280;50449;51.528;5.076;2023-03-16T06:03:47;101374.69;;;10.59;55.06
64158;BME280;50449;51.528;5.076;2023-03-16T06:06:14;101369.28;;;10.59;54.96
64158;BME280;50449;51.528;5.076;2023-03-16T06:08:41;101371.97;;;10.59;55.03
64158;BME280;50449;51.528;5.076;2023-03-16T06:11:07;101370.34;;;10.58;55.23
64158;BME280;50449;51.528;5.076;2023-03-16T06:13:33;101364.09;;;10.58;55.15
64158;BME280;50449;51.528;5.076;2023-03-16T06:15:58;101366.78;;;10.58;55.05
64158;BME280;50449;51.528;5.076;2023-03-16T06:18:23;101358.69;;;10.58;55.08
64158;BME280;50449;51.528;5.076;2023-03-16T06:20:49;101356.00;;;10.58;55.02
64158;BME280;50449;51.528;5.076;2023-03-16T06:23:14;101352.47;;;10.57;55.11
64158;BME280;50449;51.528;5.076;2023-03-16T06:25:40;101348.94;;;10.57;55.12
64158;BME280;50449;51.528;5.076;2023-03-16T06:28:06;101354.13;;;10.58;55.10
64158;BME280;50449;51.528;5.076;2023-03-16T06:30:32;101343.34;;;10.58;55.46
64158;BME280;50449;51.528;5.076;2023-03-16T06:32:57;101345.19;;;10.58;55.07
64158;BME280;50449;51.528;5.076;2023-03-16T06:35:24;101339.78;;;10.58;55.13
64158;BME280;50449;51.528;5.076;2023-03-16T06:37:50;101340.84;;;10.57;55.12
64158;BME280;50449;51.528;5.076;2023-03-16T06:40:15;101342.47;;;10.58;55.00
64158;BME280;50449;51.528;5.076;2023-03-16T06:42:41;101338.16;;;10.57;55.09
64158;BME280;50449;51.528;5.076;2023-03-16T06:45:08;101338.97;;;10.57;55.13
64158;BME280;50449;51.528;5.076;2023-03-16T06:47:34;101323.81;;;10.56;55.21
64158;BME280;50449;51.528;5.076;2023-03-16T06:49:59;101331.94;;;10.56;55.06
64158;BME280;50449;51.528;5.076;2023-03-16T06:52:25;101333.81;;;10.56;55.04
64158;BME280;50449;51.528;5.076;2023-03-16T06:54:50;101331.09;;;10.56;55.18
64158;BME280;50449;51.528;5.076;2023-03-16T06:57:16;101337.31;;;10.56;55.27
64158;BME280;50449;51.528;5.076;2023-03-16T06:59:41;101329.22;;;10.56;55.35
64158;BME280;50449;51.528;5.076;2023-03-16T07:02:11;101320.31;;;10.56;55.41
64158;BME280;50449;51.528;5.076;2023-03-16T07:04:38;101337.53;;;10.55;55.36
64158;BME280;50449;51.528;5.076;2023-03-16T07:07:03;101330.25;;;10.55;55.19
64158;BME280;50449;51.528;5.076;2023-03-16T07:09:29;101323.00;;;10.56;55.24
64158;BME280;50449;51.528;5.076;2023-03-16T07:11:54;101319.47;;;10.55;55.29
64158;BME280;50449;51.528;5.076;2023-03-16T07:14:20;101320.31;;;10.56;55.43
64158;BME280;50449;51.528;5.076;2023-03-16T07:16:47;101321.13;;;10.56;55.29
64158;BME280;50449;51.528;5.076;2023-03-16T07:19:13;101322.75;;;10.57;55.08
64158;BME280;50449;51.528;5.076;2023-03-16T07:21:38;101317.59;;;10.56;55.11
64158;BME280;50449;51.528;5.076;2023-03-16T07:24:06;101321.94;;;10.57;55.48
64158;BME280;50449;51.528;5.076;2023-03-16T07:26:32;101321.13;;;10.56;55.55
64158;BME280;50449;51.528;5.076;2023-03-16T07:28:58;101328.41;;;10.56;55.16
64158;BME280;50449;51.528;5.076;2023-03-16T07:31:23;101324.63;;;10.57;55.06
64158;BME280;50449;51.528;5.076;2023-03-16T07:33:49;101334.63;;;10.56;55.35
64158;BME280;50449;51.528;5.076;2023-03-16T07:36:14;101332.75;;;10.57;55.24
64158;BME280;50449;51.528;5.076;2023-03-16T07:38:40;101333.56;;;10.57;55.07
64158;BME280;50449;51.528;5.076;2023-03-16T07:41:05;101332.75;;;10.57;55.29
64158;BME280;50449;51.528;5.076;2023-03-16T07:43:31;101338.97;;;10.57;55.15
64158;BME280;50449;51.528;5.076;2023-03-16T07:45:56;101332.75;;;10.57;55.21
64158;BME280;50449;51.528;5.076;2023-03-16T07:48:22;101329.22;;;10.56;55.27
64158;BME280;50449;51.528;5.076;2023-03-16T07:50:48;101331.09;;;10.56;55.32
64158;BME280;50449;51.528;5.076;2023-03-16T07:53:14;101325.47;;;10.57;55.23
64158;BME280;50449;51.528;5.076;2023-03-16T07:55:40;101336.25;;;10.57;55.32
64158;BME280;50449;51.528;5.076;2023-03-16T07:58:07;101327.34;;;10.57;55.33
64158;BME280;50449;51.528;5.076;2023-03-16T08:00:35;101326.53;;;10.56;55.16
64158;BME280;50449;51.528;5.076;2023-03-16T08:03:01;101331.94;;;10.56;55.33
64158;BME280;50449;51.528;5.076;2023-03-16T08:05:27;101330.84;;;10.57;55.32
64158;BME280;50449;51.528;5.076;2023-03-16T08:07:53;101340.63;;;10.58;55.37
64158;BME280;50449;51.528;5.076;2023-03-16T08:10:18;101336.06;;;10.59;55.24
64158;BME280;50449;51.528;5.076;2023-03-16T08:12:44;101341.44;;;10.59;55.31
64158;BME280;50449;51.528;5.076;2023-03-16T08:15:10;101329.56;;;10.60;55.41
64158;BME280;50449;51.528;5.076;2023-03-16T08:17:36;101340.38;;;10.60;55.41
64158;BME280;50449;51.528;5.076;2023-03-16T08:20:05;101335.22;;;10.58;55.41
64158;BME280;50449;51.528;5.076;2023-03-16T08:22:34;101336.06;;;10.59;55.36
64158;BME280;50449;51.528;5.076;2023-03-16T08:25:01;101346.59;;;10.60;55.36
64158;BME280;50449;51.528;5.076;2023-03-16T08:27:27;101340.16;;;10.61;55.58
64158;BME280;50449;51.528;5.076;2023-03-16T08:29:54;101337.47;;;10.61;55.57
64158;BME280;50449;51.528;5.076;2023-03-16T08:32:19;101324.78;;;10.62;55.46
64158;BME280;50449;51.528;5.076;2023-03-16T08:34:45;101330.78;;;10.64;55.47
64158;BME280;50449;51.528;5.076;2023-03-16T08:37:12;101328.09;;;10.64;55.44
64158;BME280;50449;51.528;5.076;2023-03-16T08:39:41;101324.31;;;10.65;55.42
64158;BME280;50449;51.528;5.076;2023-03-16T08:42:08;101330.78;;;10.64;55.40
64158;BME280;50449;51.528;5.076;2023-03-16T08:44:33;101324.31;;;10.65;55.77
64158;BME280;50449;51.528;5.076;2023-03-16T08:47:00;101322.69;;;10.64;55.39
64158;BME280;50449;51.528;5.076;2023-03-16T08:49:27;101317.88;;;10.66;55.40
64158;BME280;50449;51.528;5.076;2023-03-16T08:51:53;101317.03;;;10.66;55.29
64158;BME280;50449;51.528;5.076;2023-03-16T08:54:18;101311.41;;;10.67;55.37
64158;BME280;50449;51.528;5.076;2023-03-16T08:56:44;101312.22;;;10.68;55.45
64158;BME280;50449;51.528;5.076;2023-03-16T08:59:09;101304.13;;;10.68;55.26
64158;BME280;50449;51.528;5.076;2023-03-16T09:01:35;101306.59;;;10.69;55.32
64158;BME280;50449;51.528;5.076;2023-03-16T09:04:00;101309.31;;;10.69;55.17
64158;BME280;50449;51.528;5.076;2023-03-16T09:06:26;101311.75;;;10.71;55.39
64158;BME280;50449;51.528;5.076;2023-03-16T09:08:51;101309.91;;;10.71;55.27
64158;BME280;50449;51.528;5.076;2023-03-16T09:11:18;101308.03;;;10.72;55.53
64158;BME280;50449;51.528;5.076;2023-03-16T09:13:44;101300.50;;;10.74;55.43
64158;BME280;50449;51.528;5.076;2023-03-16T09:16:12;101298.03;;;10.72;55.29
64158;BME280;50449;51.528;5.076;2023-03-16T09:18:37;101305.91;;;10.74;55.40
64158;BME280;50449;51.528;5.076;2023-03-16T09:21:06;101296.75;;;10.75;55.21
64158;BME280;50449;51.528;5.076;2023-03-16T09:23:32;101299.44;;;10.75;55.40
64158;BME280;50449;51.528;5.076;2023-03-16T09:26:00;101300.25;;;10.75;55.26
64158;BME280;50449;51.528;5.076;2023-03-16T09:28:28;101289.94;;;10.72;55.45
64158;BME280;50449;51.528;5.076;2023-03-16T09:30:54;101291.56;;;10.73;55.52
64158;BME280;50449;51.528;5.076;2023-03-16T09:33:21;101291.13;;;10.76;55.48
64158;BME280;50449;51.528;5.076;2023-03-16T09:35:47;101289.47;;;10.75;55.47
64158;BME280;50449;51.528;5.076;2023-03-16T09:38:12;101296.28;;;10.78;55.58
64158;BME280;50449;51.528;5.076;2023-03-16T09:40:38;101295.00;;;10.80;55.41
64158;BME280;50449;51.528;5.076;2023-03-16T09:43:26;101290.19;;;10.82;55.57
64158;BME280;50449;51.528;5.076;2023-03-16T09:48:45;101296.19;;;10.85;55.48
64158;BME280;50449;51.528;5.076;2023-03-16T09:51:41;101275.38;;;10.85;55.69
64158;BME280;50449;51.528;5.076;2023-03-16T09:54:19;101281.19;;;10.89;55.60
64158;BME280;50449;51.528;5.076;2023-03-16T09:56:48;101284.69;;;10.89;55.45
64158;BME280;50449;51.528;5.076;2023-03-16T09:59:15;101282.13;;;10.94;55.57
64158;BME280;50449;51.528;5.076;2023-03-16T10:02:04;101271.06;;;10.96;55.37
64158;BME280;50449;51.528;5.076;2023-03-16T10:12:38;101269.91;;;11.03;55.52
64158;BME280;50449;51.528;5.076;2023-03-16T10:17:42;101267.09;;;11.10;55.56
64158;BME280;50449;51.528;5.076;2023-03-16T10:20:19;101264.75;;;11.14;55.48
64158;BME280;50449;51.528;5.076;2023-03-16T10:22:46;101271.00;;;11.14;55.55
64158;BME280;50449;51.528;5.076;2023-03-16T10:26:08;101262.88;;;11.14;55.61
64158;BME280;50449;51.528;5.076;2023-03-16T10:28:13;101266.19;;;11.16;55.77
64158;BME280;50449;51.528;5.076;2023-03-16T10:30:39;101264.88;;;11.19;55.86
64158;BME280;50449;51.528;5.076;2023-03-16T10:33:30;101266.88;;;11.23;55.61
64158;BME280;50449;51.528;5.076;2023-03-16T10:43:49;101248.66;;;11.31;55.73
64158;BME280;50449;51.528;5.076;2023-03-16T10:46:15;101242.31;;;11.37;55.83
64158;BME280;50449;51.528;5.076;2023-03-16T10:48:41;101244.53;;;11.40;55.60
64158;BME280;50449;51.528;5.076;2023-03-16T10:51:16;101246.19;;;11.41;55.63
64158;BME280;50449;51.528;5.076;2023-03-16T10:53:43;101234.31;;;11.42;55.77
64158;BME280;50449;51.528;5.076;2023-03-16T10:56:11;101228.44;;;11.45;55.75
64158;BME280;50449;51.528;5.076;2023-03-16T10:58:40;101234.16;;;11.48;55.87
64158;BME280;50449;51.528;5.076;2023-03-16T11:01:26;101222.66;;;11.53;55.71
64158;BME280;50449;51.528;5.076;2023-03-16T11:03:54;101218.06;;;11.54;55.69
64158;BME280;50449;51.528;5.076;2023-03-16T11:06:26;101222.16;;;11.56;55.72
64158;BME280;50449;51.528;5.076;2023-03-16T11:09:05;101218.16;;;11.59;55.83
64158;BME280;50449;51.528;5.076;2023-03-16T11:11:34;101202.50;;;11.61;55.62
64158;BME280;50449;51.528;5.076;2023-03-16T11:14:02;101212.41;;;11.67;56.06
64158;BME280;50449;51.528;5.076;2023-03-16T11:25:00;101188.00;;;11.79;55.49
64158;BME280;50449;51.528;5.076;2023-03-16T11:32:34;101183.41;;;11.91;55.85
64158;BME280;50449;51.528;5.076;2023-03-16T11:35:00;101182.34;;;11.92;55.69
64158;BME280;50449;51.528;5.076;2023-03-16T11:37:49;101178.34;;;11.95;55.48
64158;BME280;50449;51.528;5.076;2023-03-16T11:46:19;101167.84;;;11.98;55.68
64158;BME280;50449;51.528;5.076;2023-03-16T11:57:44;101164.84;;;12.11;55.54
64158;BME280;50449;51.528;5.076;2023-03-16T12:14:04;101147.19;;;12.38;55.27
64158;BME280;50449;51.528;5.076;2023-03-16T12:17:06;101153.41;;;12.38;55.40
64158;BME280;50449;51.528;5.076;2023-03-16T12:19:59;101131.75;;;12.38;55.46
64158;BME280;50449;51.528;5.076;2023-03-16T12:22:41;101135.56;;;12.42;55.39
64158;BME280;50449;51.528;5.076;2023-03-16T12:25:21;101120.75;;;12.45;55.22
64158;BME280;50449;51.528;5.076;2023-03-16T12:27:51;101126.81;;;12.52;55.21
64158;BME280;50449;51.528;5.076;2023-03-16T12:30:55;101113.59;;;12.55;55.25
64158;BME280;50449;51.528;5.076;2023-03-16T12:44:14;101086.22;;;12.74;55.30
64158;BME280;50449;51.528;5.076;2023-03-16T12:49:26;101076.19;;;12.74;55.19
64158;BME280;50449;51.528;5.076;2023-03-16T12:52:01;101073.84;;;12.78;55.25
64158;BME280;50449;51.528;5.076;2023-03-16T12:54:27;101088.50;;;12.82;55.07
64158;BME280;50449;51.528;5.076;2023-03-16T12:57:00;101053.59;;;12.86;55.10
64158;BME280;50449;51.528;5.076;2023-03-16T12:59:36;101061.81;;;12.91;54.86
64158;BME280;50449;51.528;5.076;2023-03-16T13:02:02;101055.63;;;12.95;55.05
64158;BME280;50449;51.528;5.076;2023-03-16T13:04:38;101057.84;;;12.98;54.61
64158;BME280;50449;51.528;5.076;2023-03-16T13:07:23;101069.25;;;13.01;54.90
64158;BME280;50449;51.528;5.076;2023-03-16T13:10:10;101051.41;;;13.05;54.89
64158;BME280;50449;51.528;5.076;2023-03-16T13:12:37;101051.97;;;13.07;54.78
64158;BME280;50449;51.528;5.076;2023-03-16T13:17:44;101043.09;;;13.11;54.93
64158;BME280;50449;51.528;5.076;2023-03-16T13:22:47;101036.63;;;13.17;54.61
64158;BME280;50449;51.528;5.076;2023-03-16T13:27:49;101032.13;;;13.23;54.67
64158;BME280;50449;51.528;5.076;2023-03-16T13:30:20;101013.66;;;13.25;54.63
64158;BME280;50449;51.528;5.076;2023-03-16T13:32:47;101020.28;;;13.29;54.71
64158;BME280;50449;51.528;5.076;2023-03-16T13:35:17;101007.84;;;13.33;54.79
64158;BME280;50449;51.528;5.076;2023-03-16T13:37:43;101009.47;;;13.34;54.63
64158;BME280;50449;51.528;5.076;2023-03-16T13:40:18;101014.38;;;13.37;54.53
64158;BME280;50449;51.528;5.076;2023-03-16T13:42:48;101005.72;;;13.40;54.47
64158;BME280;50449;51.528;5.076;2023-03-16T13:45:20;101003.34;;;13.44;54.51
64158;BME280;50449;51.528;5.076;2023-03-16T13:47:48;100994.63;;;13.42;54.38
64158;BME280;50449;51.528;5.076;2023-03-16T13:50:15;101003.63;;;13.48;54.59
64158;BME280;50449;51.528;5.076;2023-03-16T13:52:42;101000.16;;;13.52;54.48
64158;BME280;50449;51.528;5.076;2023-03-16T13:55:21;100981.50;;;13.56;53.86
64158;BME280;50449;51.528;5.076;2023-03-16T13:57:48;100982.03;;;13.58;54.07
64158;BME280;50449;51.528;5.076;2023-03-16T14:00:20;100991.56;;;13.60;54.10
64158;BME280;50449;51.528;5.076;2023-03-16T14:02:51;100977.22;;;13.65;54.18
64158;BME280;50449;51.528;5.076;2023-03-16T14:05:21;100970.44;;;13.68;54.14
64158;BME280;50449;51.528;5.076;2023-03-16T14:07:49;100972.91;;;13.69;54.25
64158;BME280;50449;51.528;5.076;2023-03-16T14:10:16;100967.53;;;13.74;54.46
64158;BME280;50449;51.528;5.076;2023-03-16T14:12:56;100969.72;;;13.77;53.80
64158;BME280;50449;51.528;5.076;2023-03-16T14:15:25;100957.53;;;13.80;53.99
64158;BME280;50449;51.528;5.076;2023-03-16T14:17:51;100952.09;;;13.80;53.85
64158;BME280;50449;51.528;5.076;2023-03-16T14:20:22;100957.84;;;13.83;53.82
64158;BME280;50449;51.528;5.076;2023-03-16T14:22:50;100954.84;;;13.85;54.60
64158;BME280;50449;51.528;5.076;2023-03-16T14:25:20;100964.13;;;13.89;54.16